Terminal Aerodrome Forecast
Issued by NWS

Home | Current Version | Previous Version | Text Only | Print | Product List | Glossary On
Versions: 1 2 3 4 5 6 7 8 9 10 11 12 13
000
FTUS45 KABQ 290536
TAFLVS
TAF
KLVS 290536Z 2906/3006 15009KT P6SM SCT090
     FM291700 20012G18KT P6SM SCT090
     FM292000 23014G20KT P6SM VCTS BKN080CB
     FM292300 18012KT P6SM VCSH SCT080
     FM300200 15008KT P6SM SCT025=

USA.gov is the U.S. government's official web portal to all federal, state and local government web resources and services.